Wetterdaten: Woche 11.09.17 - 17.09.17 (KW37)
Datum Zeit Temp. Aussen Temp. o. S. +5cm Feuchte Auss BlattFeu 1 Luftdruck Regen Sonnenschein Regendauer Solar Windben Empfang
11.09.2017 00:00 14,6 C 14,4 C 13,2 C 81 % 0 lf 997,4 hPa 0,0 l/m 0,00 h 0,00 h 5 W/m 22,0 km/h (4 Bft) 96,08 %
11.09.2017 01:00 14,7 C 14,5 C 13,2 C 82 % 0 lf 996,6 hPa 0,0 l/m 0,00 h 0,03 h 0 W/m 20,5 km/h (4 Bft) 97,58 %
11.09.2017 02:00 15,2 C 15,0 C 13,8 C 82 % 0 lf 996,0 hPa 0,0 l/m 0,00 h 0,00 h 0 W/m 29,7 km/h (5 Bft) 97,29 %
11.09.2017 03:00 15,3 C 15,0 C 13,9 C 83 % 0 lf 995,6 hPa 0,0 l/m 0,00 h 0,00 h 0 W/m 28,4 km/h (4 Bft) 94,88 %
11.09.2017 04:00 15,0 C 14,3 C 13,1 C 86 % 1 lf 995,1 hPa 0,0 l/m 0,00 h 0,03 h 4 W/m 29,8 km/h (5 Bft) 98,15 %
11.09.2017 05:00 14,1 C 13,7 C 12,3 C 91 % 0 lf 994,9 hPa 0,0 l/m 0,00 h 0,13 h 5 W/m 23,3 km/h (4 Bft) 96,51 %
11.09.2017 06:00 14,2 C 13,9 C 12,8 C 90 % 0 lf 994,7 hPa 0,0 l/m 0,00 h 0,00 h 5 W/m 18,7 km/h (3 Bft) 97,42 %
11.09.2017 07:00 14,1 C 13,5 C 12,2 C 90 % 5 lf 994,9 hPa 0,0 l/m 0,00 h 0,43 h 12 W/m 18,0 km/h (3 Bft) 94,50 %
11.09.2017 08:00 13,8 C 15,6 C 12,0 C 89 % 0 lf 995,3 hPa 0,0 l/m 0,53 h 0,00 h 129 W/m 22,2 km/h (4 Bft) 97,22 %
11.09.2017 09:00 14,9 C 18,9 C 14,0 C 83 % 0 lf 995,6 hPa 0,0 l/m 0,63 h 0,00 h 262 W/m 33,1 km/h (5 Bft) 96,92 %
11.09.2017 10:00 15,9 C 19,8 C 17,0 C 77 % 0 lf 996,0 hPa 0,0 l/m 0,83 h 0,03 h 384 W/m 34,6 km/h (5 Bft) 96,30 %
11.09.2017 11:00 15,7 C 17,6 C 15,6 C 79 % 5 lf 996,3 hPa 0,0 l/m 0,30 h 0,43 h 268 W/m 29,5 km/h (5 Bft) 97,58 %
11.09.2017 12:00 16,8 C 21,9 C 19,8 C 76 % 0 lf 996,2 hPa 0,0 l/m 0,73 h 0,10 h 507 W/m 29,7 km/h (5 Bft) 96,60 %
11.09.2017 13:00 17,8 C 20,9 C 18,1 C 67 % 0 lf 996,1 hPa 0,0 l/m 0,50 h 0,07 h 412 W/m 38,2 km/h (5 Bft) 96,37 %
11.09.2017 14:00 17,8 C 20,0 C 17,4 C 68 % 3 lf 996,3 hPa 0,0 l/m 0,43 h 0,20 h 390 W/m 32,4 km/h (5 Bft) 97,21 %
11.09.2017 15:00 17,5 C 20,0 C 17,6 C 69 % 0 lf 996,6 hPa 0,0 l/m 0,60 h 0,10 h 391 W/m 32,1 km/h (5 Bft) 95,60 %
11.09.2017 16:00 17,9 C 19,0 C 17,9 C 65 % 0 lf 996,8 hPa 0,0 l/m 0,23 h 0,00 h 234 W/m 34,2 km/h (5 Bft) 95,42 %
11.09.2017 17:00 16,9 C 16,0 C 14,8 C 70 % 6 lf 997,1 hPa 0,2 l/m 0,00 h 0,30 h 63 W/m 30,8 km/h (5 Bft) 98,43 %
11.09.2017 18:00 14,9 C 13,9 C 12,4 C 84 % 10 lf 997,4 hPa 0,0 l/m 0,00 h 0,63 h 53 W/m 21,9 km/h (4 Bft) 93,51 %
11.09.2017 19:00 14,3 C 14,2 C 12,4 C 85 % 1 lf 997,6 hPa 0,2 l/m 0,13 h 0,00 h 25 W/m 21,5 km/h (4 Bft) 98,01 %
11.09.2017 20:00 14,3 C 14,0 C 12,7 C 84 % 0 lf 998,2 hPa 0,0 l/m 0,00 h 0,00 h 5 W/m 23,8 km/h (4 Bft) 95,86 %
11.09.2017 21:00 14,2 C 13,9 C 12,2 C 84 % 0 lf 998,4 hPa 0,0 l/m 0,00 h 0,00 h 3 W/m 25,2 km/h (4 Bft) 95,45 %
11.09.2017 22:00 14,0 C 13,6 C 12,2 C 84 % 0 lf 998,7 hPa 0,0 l/m 0,00 h 0,00 h 4 W/m 23,0 km/h (4 Bft) 97,74 %
11.09.2017 23:00 14,2 C 14,1 C 12,6 C 83 % 0 lf 999,0 hPa 0,0 l/m 0,00 h 0,00 h 4 W/m 28,7 km/h (4 Bft) 97,15 %
12.09.2017 00:00 14,3 C 13,9 C 12,6 C 83 % 0 lf 999,0 hPa 0,0 l/m 0,00 h 0,00 h 3 W/m 31,7 km/h (5 Bft) 93,16 %
12.09.2017 01:00 14,2 C 13,9 C 12,5 C 83 % 0 lf 999,0 hPa 0,0 l/m 0,00 h 0,00 h 0 W/m 27,9 km/h (4 Bft) 98,87 %
12.09.2017 02:00 14,2 C 13,9 C 12,6 C 84 % 0 lf 999,2 hPa 0,0 l/m 0,00 h 0,00 h 0 W/m 26,5 km/h (4 Bft) 96,36 %
12.09.2017 03:00 14,2 C 13,8 C 12,5 C 84 % 4 lf 999,7 hPa 0,0 l/m 0,00 h 0,30 h 2 W/m 22,6 km/h (4 Bft) 95,02 %
12.09.2017 04:00 13,3 C 11,6 C 10,6 C 89 % 15 lf 1000,0 hPa 0,4 l/m 0,00 h 0,47 h 4 W/m 16,0 km/h (3 Bft) 97,05 %
12.09.2017 05:00 12,1 C 11,1 C 10,2 C 92 % 15 lf 1000,5 hPa 0,0 l/m 0,00 h 0,00 h 5 W/m 13,8 km/h (3 Bft) 95,87 %
12.09.2017 06:00 12,3 C 11,7 C 10,6 C 95 % 15 lf 1001,2 hPa 1,0 l/m 0,00 h 0,57 h 5 W/m 19,6 km/h (3 Bft) 97,14 %
12.09.2017 07:00 12,3 C 11,7 C 11,1 C 96 % 15 lf 1002,1 hPa 0,0 l/m 0,00 h 0,00 h 10 W/m 23,8 km/h (4 Bft) 96,94 %
12.09.2017 08:00 12,4 C 12,6 C 11,5 C 96 % 9 lf 1002,8 hPa 0,0 l/m 0,17 h 0,10 h 94 W/m 20,1 km/h (4 Bft) 94,94 %
12.09.2017 09:00 13,1 C 14,2 C 12,1 C 95 % 0 lf 1003,5 hPa 0,0 l/m 0,07 h 0,00 h 115 W/m 22,1 km/h (4 Bft) 97,72 %
12.09.2017 10:00 14,2 C 17,2 C 13,6 C 91 % 0 lf 1004,3 hPa 0,0 l/m 0,43 h 0,00 h 286 W/m 26,5 km/h (4 Bft) 98,24 %
12.09.2017 11:00 16,1 C 22,5 C 19,2 C 82 % 0 lf 1004,7 hPa 0,0 l/m 0,97 h 0,00 h 642 W/m 32,1 km/h (5 Bft) 93,55 %
12.09.2017 12:00 17,3 C 22,1 C 19,8 C 76 % 2 lf 1005,1 hPa 0,0 l/m 0,67 h 0,17 h 535 W/m 29,8 km/h (5 Bft) 98,04 %
12.09.2017 13:00 16,5 C 17,0 C 14,4 C 81 % 12 lf 1005,7 hPa 1,2 l/m 0,27 h 0,37 h 250 W/m 21,0 km/h (4 Bft) 98,39 %
12.09.2017 14:00 14,3 C 13,5 C 12,6 C 86 % 15 lf 1006,4 hPa 0,4 l/m 0,10 h 0,60 h 186 W/m 23,9 km/h (4 Bft) 93,11 %
12.09.2017 15:00 15,7 C 22,3 C 14,2 C 84 % 4 lf 1006,5 hPa 0,0 l/m 1,00 h 0,00 h 580 W/m 21,7 km/h (4 Bft) 98,98 %
12.09.2017 16:00 17,5 C 21,2 C 14,4 C 77 % 0 lf 1006,9 hPa 0,0 l/m 1,00 h 0,00 h 465 W/m 23,6 km/h (4 Bft) 97,16 %
12.09.2017 17:00 17,8 C 18,2 C 15,4 C 73 % 0 lf 1007,1 hPa 0,0 l/m 0,80 h 0,00 h 263 W/m 19,2 km/h (3 Bft) 94,66 %
12.09.2017 18:00 17,4 C 17,3 C 15,0 C 70 % 0 lf 1007,2 hPa 0,0 l/m 0,93 h 0,00 h 141 W/m 17,5 km/h (3 Bft) 97,99 %
12.09.2017 19:00 16,6 C 15,6 C 13,4 C 75 % 0 lf 1007,4 hPa 0,0 l/m 0,40 h 0,00 h 30 W/m 7,6 km/h (2 Bft) 96,85 %
12.09.2017 20:00 15,3 C 14,1 C 12,7 C 81 % 5 lf 1007,7 hPa 0,8 l/m 0,00 h 0,20 h 5 W/m 16,2 km/h (3 Bft) 95,16 %
12.09.2017 21:00 13,8 C 12,0 C 10,9 C 87 % 15 lf 1008,0 hPa 0,0 l/m 0,00 h 0,00 h 4 W/m 14,0 km/h (3 Bft) 97,37 %
12.09.2017 22:00 12,9 C 11,7 C 10,4 C 89 % 3 lf 1008,0 hPa 0,0 l/m 0,00 h 0,00 h 4 W/m 15,0 km/h (3 Bft) 96,87 %
12.09.2017 23:00 12,4 C 11,6 C 10,0 C 89 % 0 lf 1007,9 hPa 0,0 l/m 0,00 h 0,00 h 0 W/m 18,0 km/h (3 Bft) 96,44 %
13.09.2017 00:00 12,7 C 12,7 C 10,5 C 88 % 0 lf 1006,9 hPa 0,0 l/m 0,00 h 0,00 h 0 W/m 20,0 km/h (4 Bft) 96,79 %
13.09.2017 01:00 13,2 C 13,2 C 11,0 C 86 % 0 lf 1005,3 hPa 0,0 l/m 0,00 h 0,00 h 5 W/m 21,5 km/h (4 Bft) 96,37 %
13.09.2017 02:00 13,6 C 13,7 C 12,1 C 83 % 0 lf 1003,3 hPa 0,0 l/m 0,00 h 0,00 h 5 W/m 25,2 km/h (4 Bft) 96,01 %
13.09.2017 03:00 14,2 C 14,2 C 12,8 C 80 % 0 lf 1001,1 hPa 0,0 l/m 0,00 h 0,10 h 5 W/m 29,0 km/h (5 Bft) 99,36 %
13.09.2017 04:00 13,5 C 11,5 C 10,8 C 86 % 13 lf 999,8 hPa 2,4 l/m 0,00 h 1,00 h 0 W/m 29,2 km/h (5 Bft) 93,66 %
13.09.2017 05:00 12,4 C 11,6 C 10,6 C 93 % 15 lf 998,1 hPa 0,2 l/m 0,00 h 0,30 h 5 W/m 30,9 km/h (5 Bft) 97,30 %
13.09.2017 06:00 13,0 C 12,1 C 11,1 C 93 % 12 lf 996,8 hPa 0,0 l/m 0,00 h 0,97 h 5 W/m 39,0 km/h (6 Bft) 98,34 %
13.09.2017 07:00 13,9 C 12,9 C 11,8 C 92 % 7 lf 996,3 hPa 0,2 l/m 0,00 h 0,90 h 11 W/m 44,3 km/h (6 Bft) 95,59 %
13.09.2017 08:00 14,4 C 14,6 C 12,4 C 93 % 7 lf 996,4 hPa 0,2 l/m 0,47 h 0,50 h 116 W/m 46,4 km/h (6 Bft) 95,87 %
13.09.2017 09:00 16,2 C 18,3 C 14,1 C 84 % 0 lf 996,4 hPa 0,0 l/m 0,53 h 0,00 h 207 W/m 51,1 km/h (7 Bft) 98,01 %
13.09.2017 10:00 17,2 C 20,0 C 17,3 C 77 % 0 lf 997,1 hPa 0,0 l/m 0,73 h 0,00 h 447 W/m 53,3 km/h (7 Bft) 94,09 %
13.09.2017 11:00 17,9 C 21,5 C 19,5 C 73 % 0 lf 997,7 hPa 0,0 l/m 0,77 h 0,00 h 472 W/m 50,9 km/h (7 Bft) 98,08 %
13.09.2017 12:00 18,4 C 22,8 C 20,4 C 70 % 0 lf 998,5 hPa 0,0 l/m 1,00 h 0,00 h 717 W/m 54,6 km/h (7 Bft) 95,99 %
13.09.2017 13:00 19,1 C 23,8 C 18,4 C 64 % 0 lf 999,2 hPa 0,0 l/m 1,00 h 0,00 h 689 W/m 54,9 km/h (7 Bft) 96,01 %
13.09.2017 14:00 19,5 C 22,8 C 18,8 C 65 % 0 lf 999,8 hPa 0,0 l/m 0,73 h 0,10 h 521 W/m 49,0 km/h (6 Bft) 96,29 %
13.09.2017 15:00 17,9 C 19,7 C 17,7 C 72 % 0 lf 1000,3 hPa 0,0 l/m 0,67 h 0,10 h 339 W/m 46,2 km/h (6 Bft) 96,37 %
13.09.2017 16:00 17,1 C 19,3 C 16,6 C 76 % 0 lf 1000,4 hPa 0,0 l/m 0,83 h 0,00 h 373 W/m 37,7 km/h (5 Bft) 97,36 %
13.09.2017 17:00 17,5 C 17,8 C 16,0 C 73 % 0 lf 1000,3 hPa 0,0 l/m 0,87 h 0,00 h 289 W/m 38,8 km/h (5 Bft) 96,14 %
13.09.2017 18:00 16,4 C 15,7 C 13,9 C 78 % 7 lf 1000,2 hPa 0,2 l/m 0,47 h 0,40 h 81 W/m 35,6 km/h (5 Bft) 96,69 %
13.09.2017 19:00 15,3 C 14,9 C 12,8 C 80 % 0 lf 999,9 hPa 0,0 l/m 0,27 h 0,00 h 24 W/m 21,5 km/h (4 Bft) 97,23 %
13.09.2017 20:00 14,7 C 14,1 C 12,3 C 77 % 0 lf 999,7 hPa 0,0 l/m 0,00 h 0,00 h 5 W/m 18,2 km/h (3 Bft) 97,59 %
13.09.2017 21:00 14,2 C 13,6 C 12,0 C 77 % 0 lf 999,9 hPa 0,0 l/m 0,00 h 0,00 h 3 W/m 18,0 km/h (3 Bft) 94,59 %
13.09.2017 22:00 13,8 C 13,3 C 11,9 C 80 % 0 lf 999,9 hPa 0,0 l/m 0,00 h 0,00 h 0 W/m 20,1 km/h (4 Bft) 96,79 %
13.09.2017 23:00 14,2 C 14,0 C 12,6 C 84 % 2 lf 999,6 hPa 0,2 l/m 0,00 h 0,17 h 0 W/m 27,3 km/h (4 Bft) 96,74 %
14.09.2017 00:00 13,1 C 11,3 C 10,6 C 88 % 15 lf 999,9 hPa 1,2 l/m 0,00 h 0,70 h 0 W/m 22,1 km/h (4 Bft) 96,09 %
14.09.2017 01:00 12,3 C 11,5 C 10,6 C 93 % 15 lf 1000,0 hPa 0,0 l/m 0,00 h 0,00 h 0 W/m 16,3 km/h (3 Bft) 94,59 %
14.09.2017 02:00 12,2 C 11,4 C 10,5 C 94 % 15 lf 1000,0 hPa 0,0 l/m 0,00 h 0,00 h 0 W/m 19,9 km/h (4 Bft) 97,15 %
14.09.2017 03:00 11,9 C 10,9 C 9,8 C 93 % 10 lf 999,9 hPa 0,0 l/m 0,00 h 0,00 h 4 W/m 17,2 km/h (3 Bft) 97,58 %
14.09.2017 04:00 11,5 C 10,6 C 9,6 C 93 % 0 lf 999,6 hPa 0,0 l/m 0,00 h 0,00 h 5 W/m 20,5 km/h (4 Bft) 96,48 %
14.09.2017 05:00 11,3 C 10,6 C 9,4 C 93 % 0 lf 999,4 hPa 0,0 l/m 0,00 h 0,00 h 5 W/m 18,4 km/h (3 Bft) 95,87 %
14.09.2017 06:00 11,2 C 10,7 C 9,3 C 93 % 0 lf 999,0 hPa 0,0 l/m 0,00 h 0,00 h 6 W/m 16,0 km/h (3 Bft) 95,21 %
14.09.2017 07:00 11,4 C 11,4 C 9,8 C 94 % 1 lf 998,7 hPa 0,0 l/m 0,00 h 0,17 h 17 W/m 17,1 km/h (3 Bft) 97,63 %
14.09.2017 08:00 11,7 C 12,3 C 10,3 C 92 % 0 lf 998,7 hPa 0,0 l/m 0,13 h 0,00 h 75 W/m 20,4 km/h (4 Bft) 97,15 %
14.09.2017 09:00 12,1 C 12,9 C 11,4 C 88 % 2 lf 999,4 hPa 0,0 l/m 0,13 h 0,27 h 136 W/m 26,0 km/h (4 Bft) 94,31 %
14.09.2017 10:00 12,8 C 15,1 C 12,9 C 85 % 2 lf 1000,1 hPa 0,0 l/m 0,37 h 0,00 h 224 W/m 34,2 km/h (5 Bft) 96,26 %
14.09.2017 11:00 13,4 C 15,5 C 14,1 C 79 % 0 lf 1000,5 hPa 0,0 l/m 0,20 h 0,00 h 235 W/m 36,8 km/h (5 Bft) 97,64 %
14.09.2017 12:00 14,7 C 18,7 C 16,9 C 76 % 0 lf 1001,3 hPa 0,0 l/m 0,63 h 0,07 h 514 W/m 37,9 km/h (5 Bft) 95,03 %
14.09.2017 13:00 13,4 C 14,3 C 11,6 C 82 % 14 lf 1002,0 hPa 0,2 l/m 0,20 h 0,70 h 229 W/m 32,4 km/h (5 Bft) 97,01 %
14.09.2017 14:00 13,6 C 18,1 C 12,6 C 81 % 3 lf 1002,3 hPa 0,0 l/m 0,67 h 0,27 h 530 W/m 42,0 km/h (6 Bft) 96,73 %
14.09.2017 15:00 14,0 C 14,4 C 13,4 C 76 % 1 lf 1002,8 hPa 0,0 l/m 0,00 h 0,43 h 198 W/m 46,7 km/h (6 Bft) 95,72 %
14.09.2017 16:00 12,1 C 10,9 C 10,0 C 85 % 14 lf 1003,6 hPa 1,6 l/m 0,10 h 1,00 h 105 W/m 40,9 km/h (6 Bft) 96,87 %
14.09.2017 17:00 10,5 C 9,4 C 8,9 C 93 % 15 lf 1003,7 hPa 1,8 l/m 0,00 h 1,00 h 38 W/m 42,9 km/h (6 Bft) 96,58 %
14.09.2017 18:00 10,5 C 9,8 C 9,2 C 95 % 15 lf 1004,2 hPa 1,0 l/m 0,00 h 1,00 h 21 W/m 41,4 km/h (6 Bft) 97,24 %
14.09.2017 19:00 10,9 C 10,5 C 9,6 C 96 % 15 lf 1005,6 hPa 1,2 l/m 0,00 h 1,00 h 8 W/m 32,0 km/h (5 Bft) 95,59 %
14.09.2017 20:00 11,2 C 10,6 C 10,0 C 97 % 15 lf 1007,4 hPa 1,4 l/m 0,00 h 1,00 h 0 W/m 28,7 km/h (4 Bft) 96,30 %
14.09.2017 21:00 11,3 C 10,6 C 10,0 C 97 % 15 lf 1008,7 hPa 0,2 l/m 0,00 h 0,53 h 0 W/m 25,5 km/h (4 Bft) 96,65 %
14.09.2017 22:00 11,2 C 10,6 C 9,9 C 97 % 15 lf 1009,5 hPa 0,0 l/m 0,00 h 0,10 h 0 W/m 23,6 km/h (4 Bft) 96,72 %
14.09.2017 23:00 11,1 C 10,6 C 9,9 C 97 % 15 lf 1010,4 hPa 0,0 l/m 0,00 h 0,07 h 0 W/m 22,1 km/h (4 Bft) 95,80 %
15.09.2017 00:00 11,0 C 10,4 C 9,5 C 97 % 15 lf 1010,8 hPa 0,0 l/m 0,00 h 0,03 h 0 W/m 19,9 km/h (4 Bft) 95,55 %
15.09.2017 01:00 10,5 C 9,9 C 9,0 C 97 % 15 lf 1011,1 hPa 0,0 l/m 0,00 h 0,00 h 0 W/m 15,3 km/h (3 Bft) 97,37 %
15.09.2017 02:00 10,2 C 9,6 C 8,9 C 97 % 15 lf 1011,4 hPa 0,0 l/m 0,00 h 0,07 h 0 W/m 14,6 km/h (3 Bft) 96,08 %
15.09.2017 03:00 9,8 C 9,1 C 8,2 C 97 % 14 lf 1011,4 hPa 0,0 l/m 0,00 h 0,00 h 0 W/m 10,8 km/h (2 Bft) 95,94 %
15.09.2017 04:00 9,6 C 9,0 C 8,0 C 97 % 15 lf 1011,1 hPa 0,0 l/m 0,00 h 0,00 h 0 W/m 10,4 km/h (2 Bft) 96,56 %
15.09.2017 05:00 10,0 C 9,7 C 8,9 C 97 % 14 lf 1010,9 hPa 0,0 l/m 0,00 h 0,00 h 0 W/m 10,6 km/h (2 Bft) 97,15 %
15.09.2017 06:00 10,3 C 10,0 C 9,3 C 98 % 7 lf 1010,9 hPa 0,0 l/m 0,00 h 0,00 h 0 W/m 11,1 km/h (2 Bft) 96,37 %
15.09.2017 07:00 10,4 C 10,2 C 9,5 C 98 % 1 lf 1010,7 hPa 0,0 l/m 0,00 h 0,00 h 11 W/m 7,6 km/h (2 Bft) 95,36 %
15.09.2017 08:00 10,8 C 11,1 C 10,3 C 98 % 0 lf 1010,4 hPa 0,0 l/m 0,00 h 0,00 h 33 W/m 9,2 km/h (2 Bft) 96,46 %
15.09.2017 09:00 11,6 C 14,0 C 11,8 C 98 % 0 lf 1010,5 hPa 0,0 l/m 0,20 h 0,00 h 160 W/m 13,3 km/h (3 Bft) 97,85 %
15.09.2017 10:00 12,4 C 13,4 C 12,1 C 97 % 10 lf 1010,8 hPa 0,4 l/m 0,07 h 0,67 h 184 W/m 16,3 km/h (3 Bft) 94,83 %
15.09.2017 11:00 12,9 C 14,8 C 12,9 C 94 % 10 lf 1010,6 hPa 0,2 l/m 0,33 h 0,20 h 255 W/m 15,8 km/h (3 Bft) 96,58 %
15.09.2017 12:00 13,4 C 15,2 C 12,9 C 89 % 0 lf 1010,3 hPa 0,0 l/m 0,07 h 0,07 h 185 W/m 14,5 km/h (3 Bft) 97,59 %
15.09.2017 13:00 13,5 C 15,0 C 13,0 C 86 % 0 lf 1010,4 hPa 0,0 l/m 0,10 h 0,00 h 229 W/m 17,9 km/h (3 Bft) 97,15 %
15.09.2017 14:00 14,6 C 17,0 C 15,5 C 82 % 0 lf 1010,2 hPa 0,0 l/m 0,33 h 0,00 h 298 W/m 14,0 km/h (3 Bft) 94,80 %
15.09.2017 15:00 14,6 C 15,6 C 13,4 C 81 % 6 lf 1010,0 hPa 0,0 l/m 0,07 h 0,25 h 152 W/m 13,6 km/h (3 Bft) 97,70 %
15.09.2017 16:00 14,9 C 18,0 C 14,6 C 80 % 0 lf 1009,8 hPa 0,0 l/m 0,63 h 0,00 h 341 W/m 14,2 km/h (3 Bft) 96,80 %
15.09.2017 17:00 15,0 C 15,7 C 13,9 C 76 % 0 lf 1009,7 hPa 0,0 l/m 0,77 h 0,00 h 235 W/m 21,6 km/h (4 Bft) 95,95 %
15.09.2017 18:00 14,1 C 13,4 C 11,9 C 78 % 0 lf 1009,9 hPa 0,0 l/m 0,37 h 0,00 h 95 W/m 13,1 km/h (3 Bft) 95,56 %
15.09.2017 19:00 12,7 C 11,9 C 10,7 C 81 % 0 lf 1010,0 hPa 0,0 l/m 0,30 h 0,00 h 25 W/m 9,1 km/h (2 Bft) 97,90 %
15.09.2017 20:00 11,5 C 10,2 C 8,9 C 84 % 0 lf 1010,2 hPa 0,0 l/m 0,00 h 0,00 h 0 W/m 7,4 km/h (2 Bft) 95,73 %
15.09.2017 21:00 10,6 C 9,8 C 8,6 C 88 % 0 lf 1010,4 hPa 0,0 l/m 0,00 h 0,00 h 4 W/m 9,2 km/h (2 Bft) 94,87 %
15.09.2017 22:00 10,1 C 9,4 C 8,3 C 90 % 0 lf 1010,2 hPa 0,0 l/m 0,00 h 0,00 h 3 W/m 11,3 km/h (2 Bft) 97,64 %
15.09.2017 23:00 9,8 C 9,1 C 7,8 C 90 % 0 lf 1010,3 hPa 0,0 l/m 0,00 h 0,00 h 4 W/m 9,0 km/h (2 Bft) 97,43 %
16.09.2017 00:00 9,3 C 8,3 C 7,1 C 91 % 0 lf 1010,2 hPa 0,0 l/m 0,00 h 0,00 h 4 W/m 7,7 km/h (2 Bft) 94,58 %
16.09.2017 01:00 8,9 C 8,3 C 7,2 C 93 % 0 lf 1009,9 hPa 0,0 l/m 0,00 h 0,00 h 4 W/m 9,9 km/h (2 Bft) 96,87 %
16.09.2017 02:00 8,8 C 7,9 C 6,8 C 94 % 1 lf 1009,8 hPa 0,0 l/m 0,00 h 0,00 h 5 W/m 9,2 km/h (2 Bft) 96,65 %
16.09.2017 03:00 8,4 C 7,8 C 6,7 C 94 % 1 lf 1009,5 hPa 0,0 l/m 0,00 h 0,00 h 4 W/m 11,0 km/h (2 Bft) 97,23 %
16.09.2017 04:00 8,3 C 7,8 C 6,7 C 95 % 1 lf 1009,3 hPa 0,0 l/m 0,00 h 0,00 h 5 W/m 13,0 km/h (3 Bft) 95,80 %
16.09.2017 05:00 8,1 C 7,7 C 6,6 C 95 % 1 lf 1009,3 hPa 0,2 l/m 0,00 h 0,00 h 0 W/m 10,8 km/h (2 Bft) 96,44 %
16.09.2017 06:00 7,8 C 7,2 C 6,1 C 96 % 1 lf 1009,2 hPa 0,0 l/m 0,00 h 0,00 h 5 W/m 10,1 km/h (2 Bft) 96,32 %
16.09.2017 07:00 7,6 C 7,3 C 6,1 C 96 % 2 lf 1009,3 hPa 0,0 l/m 0,43 h 0,00 h 27 W/m 8,8 km/h (2 Bft) 96,49 %
16.09.2017 08:00 8,2 C 12,3 C 7,5 C 96 % 0 lf 1009,4 hPa 0,0 l/m 1,00 h 0,00 h 153 W/m 13,1 km/h (3 Bft) 97,98 %
16.09.2017 09:00 10,8 C 19,8 C 10,3 C 94 % 0 lf 1009,7 hPa 0,0 l/m 1,00 h 0,00 h 322 W/m 13,0 km/h (3 Bft) 95,37 %
16.09.2017 10:00 13,4 C 21,2 C 14,4 C 85 % 0 lf 1010,1 hPa 0,0 l/m 1,00 h 0,00 h 477 W/m 15,4 km/h (3 Bft) 95,65 %
16.09.2017 11:00 14,9 C 22,1 C 18,7 C 77 % 0 lf 1010,1 hPa 0,0 l/m 0,93 h 0,00 h 596 W/m 18,7 km/h (3 Bft) 97,63 %
16.09.2017 12:00 16,4 C 23,5 C 19,8 C 71 % 0 lf 1010,0 hPa 0,0 l/m 0,90 h 0,00 h 635 W/m 18,2 km/h (3 Bft) 96,81 %
16.09.2017 13:00 16,7 C 20,0 C 16,0 C 67 % 0 lf 1009,8 hPa 0,0 l/m 0,40 h 0,00 h 373 W/m 18,7 km/h (3 Bft) 96,23 %
16.09.2017 14:00 16,2 C 20,4 C 15,9 C 67 % 0 lf 1009,6 hPa 0,0 l/m 0,50 h 0,00 h 342 W/m 18,6 km/h (3 Bft) 94,95 %
16.09.2017 15:00 17,4 C 23,5 C 17,1 C 64 % 0 lf 1009,3 hPa 0,0 l/m 0,90 h 0,00 h 551 W/m 15,6 km/h (3 Bft) 97,86 %
16.09.2017 16:00 18,0 C 21,3 C 16,5 C 63 % 0 lf 1009,1 hPa 0,0 l/m 1,00 h 0,00 h 526 W/m 11,7 km/h (2 Bft) 96,58 %
16.09.2017 17:00 17,5 C 18,0 C 15,8 C 64 % 0 lf 1009,2 hPa 0,0 l/m 1,00 h 0,00 h 360 W/m 13,1 km/h (3 Bft) 95,02 %
16.09.2017 18:00 16,6 C 16,1 C 14,1 C 65 % 0 lf 1009,5 hPa 0,0 l/m 1,00 h 0,00 h 199 W/m 9,1 km/h (2 Bft) 97,69 %
16.09.2017 19:00 15,3 C 13,5 C 11,5 C 70 % 0 lf 1009,9 hPa 0,0 l/m 0,57 h 0,00 h 31 W/m 6,0 km/h (2 Bft) 96,97 %
16.09.2017 20:00 13,3 C 11,7 C 9,8 C 78 % 0 lf 1010,6 hPa 0,0 l/m 0,00 h 0,00 h 4 W/m 7,8 km/h (2 Bft) 93,18 %
16.09.2017 21:00 11,7 C 10,2 C 8,6 C 82 % 0 lf 1011,0 hPa 0,0 l/m 0,00 h 0,00 h 4 W/m 5,7 km/h (1 Bft) 99,01 %
16.09.2017 22:00 10,5 C 9,3 C 7,9 C 86 % 0 lf 1011,2 hPa 0,0 l/m 0,00 h 0,00 h 3 W/m 4,1 km/h (1 Bft) 95,80 %
16.09.2017 23:00 10,0 C 9,5 C 8,1 C 89 % 0 lf 1011,4 hPa 0,0 l/m 0,00 h 0,00 h 5 W/m 1,3 km/h (1 Bft) 97,37 %
17.09.2017 00:00 9,8 C 9,4 C 8,1 C 90 % 0 lf 1011,6 hPa 0,0 l/m 0,00 h 0,00 h 5 W/m 0,0 km/h (0 Bft) 90,10 %
17.09.2017 01:00 9,7 C 8,7 C 7,9 C 91 % 0 lf 1011,6 hPa 0,0 l/m 0,00 h 0,00 h 0 W/m 0,3 km/h (0 Bft) 94,99 %
17.09.2017 02:00 9,1 C 7,8 C 6,5 C 91 % 2 lf 1011,4 hPa 0,0 l/m 0,00 h 0,00 h 3 W/m 4,1 km/h (1 Bft) 97,91 %
17.09.2017 03:00 8,4 C 7,5 C 6,2 C 93 % 4 lf 1011,5 hPa 0,0 l/m 0,00 h 0,00 h 4 W/m 6,1 km/h (2 Bft) 97,70 %
17.09.2017 04:00 7,8 C 7,0 C 5,9 C 94 % 11 lf 1011,4 hPa 0,0 l/m 0,00 h 0,00 h 4 W/m 6,3 km/h (2 Bft) 94,40 %
17.09.2017 05:00 7,5 C 7,1 C 6,4 C 95 % 12 lf 1011,5 hPa 0,0 l/m 0,00 h 0,00 h 0 W/m 7,6 km/h (2 Bft) 96,43 %
17.09.2017 06:00 7,6 C 7,5 C 6,7 C 96 % 3 lf 1011,6 hPa 0,0 l/m 0,00 h 0,00 h 0 W/m 8,2 km/h (2 Bft) 97,23 %
17.09.2017 07:00 7,8 C 7,9 C 6,9 C 96 % 0 lf 1012,0 hPa 0,0 l/m 0,10 h 0,00 h 22 W/m 6,6 km/h (2 Bft) 96,58 %
17.09.2017 08:00 8,4 C 10,4 C 8,4 C 97 % 0 lf 1012,5 hPa 0,0 l/m 0,83 h 0,00 h 132 W/m 8,2 km/h (2 Bft) 96,37 %
17.09.2017 09:00 9,5 C 10,8 C 10,1 C 96 % 0 lf 1012,8 hPa 0,0 l/m 0,07 h 0,00 h 132 W/m 8,1 km/h (2 Bft) 95,59 %
17.09.2017 10:00 10,8 C 13,4 C 12,7 C 94 % 0 lf 1013,0 hPa 0,0 l/m 0,50 h 0,00 h 235 W/m 8,9 km/h (2 Bft) 97,72 %
17.09.2017 11:00 12,8 C 17,7 C 16,4 C 87 % 0 lf 1012,9 hPa 0,0 l/m 1,00 h 0,00 h 459 W/m 11,2 km/h (2 Bft) 97,30 %
17.09.2017 12:00 15,0 C 19,3 C 17,5 C 77 % 0 lf 1012,5 hPa 0,0 l/m 1,00 h 0,00 h 555 W/m 9,3 km/h (2 Bft) 94,83 %
17.09.2017 13:00 16,0 C 20,0 C 16,7 C 72 % 0 lf 1012,2 hPa 0,0 l/m 0,93 h 0,00 h 497 W/m 8,3 km/h (2 Bft) 97,59 %
17.09.2017 14:00 17,3 C 24,9 C 16,3 C 65 % 0 lf 1011,8 hPa 0,0 l/m 1,00 h 0,00 h 673 W/m 10,9 km/h (2 Bft) 95,52 %
17.09.2017 15:00 17,2 C 20,2 C 17,2 C 64 % 0 lf 1011,5 hPa 0,0 l/m 1,00 h 0,00 h 611 W/m 9,3 km/h (2 Bft) 96,65 %
17.09.2017 16:00 16,9 C 20,4 C 16,1 C 66 % 0 lf 1011,1 hPa 0,0 l/m 1,00 h 0,00 h 491 W/m 7,5 km/h (2 Bft) 96,23 %
17.09.2017 17:00 17,2 C 17,0 C 14,6 C 65 % 0 lf 1010,9 hPa 0,0 l/m 1,00 h 0,00 h 354 W/m 7,1 km/h (2 Bft) 96,30 %
17.09.2017 18:00 16,3 C 15,0 C 13,3 C 70 % 0 lf 1011,3 hPa 0,0 l/m 0,57 h 0,00 h 138 W/m 4,1 km/h (1 Bft) 97,68 %
17.09.2017 19:00 14,5 C 12,9 C 10,7 C 76 % 14 lf 1011,5 hPa 0,2 l/m 0,30 h 0,27 h 23 W/m 5,3 km/h (1 Bft) 96,51 %
17.09.2017 20:00 13,0 C 11,4 C 9,5 C 83 % 15 lf 1011,9 hPa 0,0 l/m 0,00 h 0,00 h 5 W/m 1,7 km/h (1 Bft) 96,51 %
17.09.2017 21:00 11,7 C 9,6 C 8,5 C 86 % 15 lf 1012,1 hPa 0,0 l/m 0,00 h 0,00 h 3 W/m 0,2 km/h (0 Bft) 95,16 %
17.09.2017 22:00 10,5 C 8,5 C 7,7 C 89 % 15 lf 1012,3 hPa 0,0 l/m 0,00 h 0,00 h 3 W/m 0,0 km/h (0 Bft) 97,79 %
17.09.2017 23:00 9,5 C 7,8 C 6,9 C 90 % 15 lf 1012,4 hPa 0,0 l/m 0,00 h 0,00 h 4 W/m 0,0 km/h (0 Bft) 98,00 %
Min-Datum _ 17.09.17 17.09.17 16.09.17 13.09.17 11.09.17 11.09.17 - - - - 16.09.17 17.09.17
_ Min-Zeit 05:08 04:42 06:40 13:54 00:00 06:34 - - - - 22:54 00:02
Minimum _ 7,4 C 6,7 C 5,6 C 60 % 0 lf 994,6 hPa - - - - 0,0 km/h (0 Bft) 14,29 %
Max-Datum _ 13.09.17 17.09.17 12.09.17 15.09.17 11.09.17 17.09.17 13.09.17 11.09.17 13.09.17 16.09.17 13.09.17 11.09.17
_ Max-Zeit 14:18 14:26 12:24 05:58 11:28 11:04 04:08 12:10 04:05 13:04 09:42 00:44
Maximum _ 19,9 C 29,4 C 23,3 C 98 % 15 lf 1013,1 hPa 2,4 l/m 0,07 h 0,08 h 889 W/m 75,3 km/h
W-SW (9 Bft)
100,00 %
Durchschnitt _ 13,3 C 14,1 C 12,1 C 85 % 4 lf 1005,0 hPa #17,2 l/m #45:40 h #19:43 h 177 W/m 20,4 km/h (4 Bft) 96,45 %
© 2017 W. Hausmann